createdAt,value
2022-12-01T00:00:10.155Z,100.00
2022-12-01T00:02:15.795Z,100.00
2022-12-01T00:04:22.872Z,100.00
2022-12-01T00:06:28.762Z,100.00
2022-12-01T00:08:36.787Z,100.00
2022-12-01T00:10:41.199Z,100.00
2022-12-01T00:12:46.724Z,100.00
2022-12-01T00:15:01.354Z,100.00
2022-12-01T00:17:07.866Z,100.00
2022-12-01T00:19:13.255Z,100.00
2022-12-01T00:21:18.719Z,100.00
2022-12-01T00:23:22.592Z,100.00
2022-12-01T00:25:28.495Z,100.00
2022-12-01T00:27:32.921Z,100.00
2022-12-01T00:29:37.084Z,100.00
2022-12-01T00:31:40.938Z,100.00
2022-12-01T00:33:44.845Z,100.00
2022-12-01T00:35:50.276Z,100.00
2022-12-01T00:37:54.308Z,100.00
2022-12-01T00:39:59.262Z,100.00
2022-12-01T00:42:05.426Z,100.00
2022-12-01T00:44:12.019Z,100.00
2022-12-01T00:46:16.032Z,100.00
2022-12-01T00:48:20.692Z,100.00
2022-12-01T00:50:25.404Z,100.00
2022-12-01T00:52:31.389Z,100.00
2022-12-01T00:54:35.795Z,100.00
2022-12-01T00:56:40.581Z,100.00
2022-12-01T00:58:44.819Z,100.00
2022-12-01T01:00:49.362Z,100.00
2022-12-01T01:02:54.232Z,100.00
2022-12-01T01:04:59.028Z,100.00
2022-12-01T01:07:03.712Z,100.00
2022-12-01T01:09:10.119Z,100.00
2022-12-01T01:11:14.528Z,100.00
2022-12-01T01:13:18.451Z,100.00
2022-12-01T01:15:22.609Z,100.00
2022-12-01T01:17:26.731Z,100.00
2022-12-01T01:19:31.203Z,100.00
2022-12-01T01:21:35.725Z,100.00
2022-12-01T01:23:40.388Z,100.00
2022-12-01T01:25:45.788Z,100.00
2022-12-01T01:27:50.861Z,100.00
2022-12-01T01:29:55.380Z,100.00
2022-12-01T01:32:00.033Z,100.00
2022-12-01T01:34:05.858Z,100.00
2022-12-01T01:36:10.405Z,100.00
2022-12-01T01:38:14.429Z,100.00
2022-12-01T01:40:19.297Z,100.00
2022-12-01T01:42:25.311Z,100.00
2022-12-01T01:44:50.824Z,100.00
2022-12-01T01:46:54.875Z,100.00
2022-12-01T01:49:03.270Z,100.00
2022-12-01T01:51:09.312Z,100.00
2022-12-01T01:53:16.980Z,100.00
2022-12-01T01:55:21.752Z,100.00
2022-12-01T01:57:30.214Z,100.00
2022-12-01T01:59:39.011Z,100.00
2022-12-01T02:01:43.378Z,100.00
2022-12-01T02:03:53.106Z,100.00
2022-12-01T02:06:04.882Z,100.00
2022-12-01T02:08:12.722Z,100.00
2022-12-01T02:10:23.058Z,100.00
2022-12-01T02:12:49.672Z,100.00
2022-12-01T02:15:14.935Z,100.00
2022-12-01T02:17:40.229Z,100.00
2022-12-01T02:20:14.834Z,100.00
2022-12-01T02:22:32.112Z,100.00
2022-12-01T02:24:55.502Z,100.00
2022-12-01T02:27:06.452Z,100.00
2022-12-01T02:29:45.123Z,100.00
2022-12-01T02:32:01.057Z,100.00
2022-12-01T02:34:14.898Z,100.00
2022-12-01T02:36:23.050Z,100.00
2022-12-01T02:38:33.596Z,100.00
2022-12-01T02:40:43.560Z,100.00
2022-12-01T02:42:53.690Z,100.00
2022-12-01T02:45:00.918Z,100.00
2022-12-01T02:47:15.680Z,100.00
2022-12-01T02:49:27.749Z,100.00
2022-12-01T02:51:35.673Z,100.00
2022-12-01T02:53:40.470Z,100.00
2022-12-01T02:55:53.264Z,100.00
2022-12-01T02:57:57.693Z,100.00
2022-12-01T03:00:05.430Z,100.00
2022-12-01T03:02:19.306Z,100.00
2022-12-01T03:04:52.215Z,100.00
2022-12-01T03:07:07.245Z,100.00
2022-12-01T03:09:21.104Z,100.00
2022-12-01T03:11:34.103Z,100.00
2022-12-01T03:13:44.435Z,100.00
2022-12-01T03:16:00.660Z,100.00
2022-12-01T03:18:15.977Z,100.00
2022-12-01T03:20:25.629Z,100.00
2022-12-01T03:22:40.446Z,100.00
2022-12-01T03:24:50.161Z,100.00
2022-12-01T03:26:58.508Z,100.00
2022-12-01T03:29:08.757Z,100.00
2022-12-01T03:31:18.953Z,100.00
2022-12-01T03:33:29.570Z,100.00
2022-12-01T03:35:38.287Z,100.00
2022-12-01T03:37:47.213Z,100.00
2022-12-01T03:40:00.655Z,100.00
2022-12-01T03:42:12.288Z,100.00
2022-12-01T03:44:22.047Z,100.00
2022-12-01T03:46:36.755Z,100.00
2022-12-01T03:48:43.553Z,100.00
2022-12-01T03:50:58.884Z,100.00
2022-12-01T03:53:12.476Z,100.00
2022-12-01T03:55:23.089Z,100.00
2022-12-01T03:57:31.964Z,100.00
2022-12-01T03:59:39.639Z,100.00
2022-12-01T04:01:43.494Z,100.00
2022-12-01T04:03:49.833Z,100.00
2022-12-01T04:05:54.129Z,100.00
2022-12-01T04:07:58.491Z,100.00
2022-12-01T04:10:02.548Z,100.00
2022-12-01T04:12:24.378Z,100.00
2022-12-01T04:14:28.161Z,100.00
2022-12-01T04:16:31.863Z,100.00
2022-12-01T04:18:36.232Z,100.00
2022-12-01T04:20:43.669Z,100.00
2022-12-01T04:22:47.810Z,100.00
2022-12-01T04:24:52.716Z,100.00
2022-12-01T04:26:56.842Z,100.00
2022-12-01T04:29:04.161Z,100.00
2022-12-01T04:31:08.526Z,100.00
2022-12-01T04:33:15.626Z,100.00
2022-12-01T04:35:20.195Z,100.00
2022-12-01T04:37:26.658Z,100.00
2022-12-01T04:39:33.669Z,100.00
2022-12-01T04:41:38.243Z,100.00
2022-12-01T04:43:46.351Z,100.00
2022-12-01T04:45:51.332Z,100.00
2022-12-01T04:47:56.973Z,100.00
2022-12-01T04:50:00.999Z,100.00
2022-12-01T04:52:06.438Z,100.00
2022-12-01T04:54:14.252Z,100.00
2022-12-01T04:56:20.685Z,100.00
2022-12-01T04:58:24.790Z,100.00
2022-12-01T05:00:28.830Z,100.00
2022-12-01T05:02:34.134Z,100.00
2022-12-01T05:04:42.700Z,100.00
2022-12-01T05:06:46.953Z,100.00
2022-12-01T05:08:52.547Z,100.00
2022-12-01T05:10:59.350Z,100.00
2022-12-01T05:13:05.476Z,100.00
2022-12-01T05:15:10.788Z,100.00
2022-12-01T05:17:15.634Z,100.00
2022-12-01T05:19:38.557Z,100.00
2022-12-01T05:21:45.001Z,100.00
2022-12-01T05:23:49.052Z,100.00
2022-12-01T05:25:53.362Z,100.00
2022-12-01T05:27:58.722Z,100.00
2022-12-01T05:30:04.051Z,100.00
2022-12-01T05:32:09.162Z,100.00
2022-12-01T05:34:14.733Z,100.00
2022-12-01T05:36:19.861Z,100.00
2022-12-01T05:38:25.250Z,100.00
2022-12-01T05:40:31.132Z,100.00
2022-12-01T05:42:36.673Z,100.00
2022-12-01T05:44:42.243Z,100.00
2022-12-01T05:46:46.936Z,100.00
2022-12-01T05:48:50.535Z,100.00
2022-12-01T05:50:54.244Z,100.00
2022-12-01T05:52:58.130Z,100.00
2022-12-01T05:55:02.128Z,100.00
2022-12-01T05:57:05.449Z,100.00
2022-12-01T05:59:08.744Z,100.00
2022-12-01T06:01:13.588Z,100.00
2022-12-01T06:03:16.941Z,100.00
2022-12-01T06:05:20.743Z,100.00
2022-12-01T06:07:26.162Z,100.00
2022-12-01T06:09:29.777Z,100.00
2022-12-01T06:11:33.250Z,100.00
2022-12-01T06:13:36.968Z,100.00
2022-12-01T06:15:40.729Z,100.00
2022-12-01T06:17:45.677Z,100.00
2022-12-01T06:19:49.312Z,100.00
2022-12-01T06:21:52.980Z,100.00
2022-12-01T06:23:56.784Z,100.00
2022-12-01T06:26:00.696Z,100.00
2022-12-01T06:28:04.305Z,100.00
2022-12-01T06:30:09.236Z,100.00
2022-12-01T06:32:12.918Z,100.00
2022-12-01T06:34:18.255Z,100.00
2022-12-01T06:36:21.870Z,100.00
2022-12-01T06:38:25.260Z,100.00
2022-12-01T06:40:29.478Z,100.00
2022-12-01T06:42:34.083Z,100.00
2022-12-01T06:44:37.571Z,100.00
2022-12-01T06:46:41.498Z,100.00
2022-12-01T06:48:45.524Z,100.00
2022-12-01T06:50:52.971Z,100.00
2022-12-01T06:52:59.294Z,100.00
2022-12-01T06:55:04.299Z,100.00
2022-12-01T06:57:08.585Z,100.00
2022-12-01T06:59:12.803Z,100.00
2022-12-01T07:01:17.380Z,100.00
2022-12-01T07:03:20.949Z,100.00
2022-12-01T07:05:24.788Z,100.00
2022-12-01T07:07:29.763Z,100.00
2022-12-01T07:09:33.153Z,100.00
2022-12-01T07:11:37.055Z,100.00
2022-12-01T07:13:41.307Z,100.00
2022-12-01T07:15:44.958Z,100.00
2022-12-01T07:17:48.321Z,100.00
2022-12-01T07:19:52.215Z,100.00
2022-12-01T07:21:55.880Z,100.00
2022-12-01T07:24:01.622Z,100.00
2022-12-01T07:26:07.201Z,100.00
2022-12-01T07:28:10.636Z,100.00
2022-12-01T07:30:14.754Z,100.00
2022-12-01T07:32:18.179Z,100.00
2022-12-01T07:34:21.556Z,100.00
2022-12-01T07:36:25.004Z,100.00
2022-12-01T07:38:30.101Z,100.00
2022-12-01T07:40:35.233Z,100.00
2022-12-01T07:42:41.953Z,100.00
2022-12-01T07:44:45.400Z,100.00
2022-12-01T07:46:48.986Z,100.00
2022-12-01T07:48:53.153Z,100.00
2022-12-01T07:50:57.617Z,100.00
2022-12-01T07:53:01.164Z,100.00
2022-12-01T07:55:05.075Z,100.00
2022-12-01T07:57:09.829Z,100.00
2022-12-01T07:59:13.318Z,100.00
2022-12-01T08:01:18.719Z,100.00
2022-12-01T08:03:22.394Z,100.00
2022-12-01T08:05:25.779Z,100.00
2022-12-01T08:07:30.106Z,100.00
2022-12-01T08:09:33.547Z,100.00
2022-12-01T08:11:36.891Z,100.00
2022-12-01T08:13:42.558Z,100.00
2022-12-01T08:15:46.152Z,100.00
2022-12-01T08:17:49.504Z,100.00
2022-12-01T08:19:52.816Z,100.00
2022-12-01T08:21:56.410Z,100.00
2022-12-01T08:24:00.513Z,100.00
2022-12-01T08:26:04.579Z,100.00
2022-12-01T08:28:08.946Z,100.00
2022-12-01T08:30:16.836Z,100.00
2022-12-01T08:32:22.158Z,100.00
2022-12-01T08:34:25.938Z,100.00
2022-12-01T08:36:29.779Z,100.00
2022-12-01T08:38:33.883Z,100.00
2022-12-01T08:40:38.315Z,100.00
2022-12-01T08:42:42.092Z,100.00
2022-12-01T08:44:45.970Z,100.00
2022-12-01T08:46:51.382Z,100.00
2022-12-01T08:48:58.007Z,100.00
2022-12-01T08:51:10.707Z,100.00
2022-12-01T08:53:14.963Z,100.00
2022-12-01T08:55:18.743Z,100.00
2022-12-01T08:57:22.371Z,100.00
2022-12-01T08:59:26.127Z,100.00
2022-12-01T09:01:30.508Z,100.00
2022-12-01T09:03:36.632Z,100.00
2022-12-01T09:05:40.604Z,100.00
2022-12-01T09:07:45.723Z,100.00
2022-12-01T09:09:49.667Z,100.00
2022-12-01T09:11:53.795Z,100.00
2022-12-01T09:13:57.367Z,100.00
2022-12-01T09:16:03.543Z,100.00
2022-12-01T09:18:07.338Z,100.00
2022-12-01T09:20:13.904Z,100.00
2022-12-01T09:22:17.375Z,100.00
2022-12-01T09:24:20.900Z,100.00
2022-12-01T09:26:25.039Z,100.00
2022-12-01T09:28:28.732Z,100.00
2022-12-01T09:30:32.645Z,100.00
2022-12-01T09:32:36.173Z,100.00
2022-12-01T09:34:39.926Z,100.00
2022-12-01T09:36:45.250Z,100.00
2022-12-01T09:38:49.180Z,100.00
2022-12-01T09:40:53.746Z,100.00
2022-12-01T09:42:58.073Z,100.00
2022-12-01T09:45:04.534Z,100.00
2022-12-01T09:47:19.436Z,100.00
2022-12-01T09:49:26.881Z,100.00
2022-12-01T09:51:34.930Z,100.00
2022-12-01T09:53:39.959Z,100.00
2022-12-01T09:55:44.542Z,100.00
2022-12-01T09:57:50.176Z,100.00
2022-12-01T09:59:55.214Z,100.00
2022-12-01T10:02:03.195Z,100.00
2022-12-01T10:04:12.460Z,100.00
2022-12-01T10:06:28.811Z,100.00
2022-12-01T10:08:38.582Z,100.00
2022-12-01T10:10:48.536Z,100.00
2022-12-01T10:12:52.206Z,100.00
2022-12-01T10:15:02.286Z,100.00
2022-12-01T10:17:23.005Z,100.00
2022-12-01T10:19:35.282Z,100.00
2022-12-01T10:21:53.687Z,100.00
2022-12-01T10:24:23.980Z,100.00
2022-12-01T10:26:36.539Z,100.00
2022-12-01T10:29:01.677Z,100.00
2022-12-01T10:31:15.646Z,100.00
2022-12-01T10:33:25.531Z,100.00
2022-12-01T10:35:36.193Z,100.00
2022-12-01T10:37:40.391Z,100.00
2022-12-01T10:39:46.660Z,100.00
2022-12-01T10:41:52.301Z,100.00
2022-12-01T10:44:01.250Z,100.00
2022-12-01T10:46:23.005Z,100.00
2022-12-01T10:48:26.449Z,100.00
2022-12-01T10:50:30.187Z,100.00
2022-12-01T10:52:39.596Z,100.00
2022-12-01T10:54:43.290Z,100.00
2022-12-01T10:56:50.178Z,100.00
2022-12-01T10:58:57.382Z,100.00
2022-12-01T11:01:04.743Z,100.00
2022-12-01T11:03:08.653Z,100.00
2022-12-01T11:05:25.266Z,100.00
2022-12-01T11:07:31.724Z,100.00
2022-12-01T11:09:36.290Z,100.00
2022-12-01T11:11:41.750Z,100.00
2022-12-01T11:13:45.497Z,100.00
2022-12-01T11:15:53.647Z,100.00
2022-12-01T11:18:01.654Z,100.00
2022-12-01T11:20:28.963Z,100.00
2022-12-01T11:22:33.459Z,100.00
2022-12-01T11:24:43.208Z,100.00
2022-12-01T11:26:46.974Z,100.00
2022-12-01T11:28:56.148Z,100.00
2022-12-01T11:31:05.239Z,100.00
2022-12-01T11:33:08.925Z,99.83
2022-12-01T11:35:21.192Z,99.15
2022-12-01T11:37:29.047Z,97.33
2022-12-01T11:39:35.690Z,96.22
2022-12-01T11:41:42.916Z,94.47
2022-12-01T11:44:00.822Z,93.97
2022-12-01T11:46:09.585Z,93.77
2022-12-01T11:48:26.316Z,93.09
2022-12-01T11:50:32.510Z,92.83
2022-12-01T11:52:46.753Z,93.00
2022-12-01T11:54:57.897Z,92.65
2022-12-01T11:59:28.228Z,91.27
2022-12-01T12:01:42.000Z,91.26
2022-12-01T12:03:56.081Z,91.52
2022-12-01T12:08:56.962Z,90.78
2022-12-01T12:11:08.155Z,90.63
2022-12-01T12:13:33.484Z,90.58
2022-12-01T12:18:25.289Z,90.54
2022-12-01T12:20:53.296Z,90.61
2022-12-01T12:23:07.427Z,90.38
2022-12-01T12:25:26.653Z,90.77
2022-12-01T12:27:40.937Z,90.79
2022-12-01T12:30:01.062Z,90.55
2022-12-01T12:32:17.254Z,89.62
2022-12-01T12:34:32.655Z,89.03
2022-12-01T12:36:45.763Z,88.67
2022-12-01T12:39:04.190Z,88.89
2022-12-01T12:41:20.226Z,88.59
2022-12-01T12:43:30.568Z,89.03
2022-12-01T12:45:48.353Z,88.53
2022-12-01T12:48:10.252Z,88.31
2022-12-01T12:50:27.316Z,87.48
2022-12-01T12:52:34.941Z,88.00
2022-12-01T12:54:46.627Z,87.94
2022-12-01T12:56:55.687Z,88.03
2022-12-01T12:59:04.367Z,88.31
2022-12-01T13:01:13.881Z,88.00
2022-12-01T13:03:29.227Z,88.36
2022-12-01T13:05:42.187Z,88.51
2022-12-01T13:07:57.713Z,88.85
2022-12-01T13:10:08.486Z,88.45
2022-12-01T13:12:16.389Z,88.64
2022-12-01T13:14:27.083Z,88.14
2022-12-01T13:16:35.825Z,87.84
2022-12-01T13:18:43.227Z,87.03
2022-12-01T13:20:49.072Z,86.71
2022-12-01T13:22:54.046Z,85.67
2022-12-01T13:24:57.700Z,85.55
2022-12-01T13:27:06.979Z,85.52
2022-12-01T13:29:16.459Z,85.09
2022-12-01T13:31:22.343Z,84.78
2022-12-01T13:33:26.088Z,85.04
2022-12-01T13:35:32.735Z,84.96
2022-12-01T13:37:40.617Z,84.50
2022-12-01T13:39:46.714Z,84.55
2022-12-01T13:42:01.602Z,84.55
2022-12-01T13:44:08.424Z,84.70
2022-12-01T13:46:23.865Z,84.08
2022-12-01T13:48:30.969Z,84.97
2022-12-01T13:51:05.251Z,84.91
2022-12-01T13:53:14.885Z,84.63
2022-12-01T13:55:31.154Z,84.15
2022-12-01T13:57:37.050Z,83.78
2022-12-01T14:00:06.922Z,83.76
2022-12-01T14:02:22.364Z,84.16
2022-12-01T14:04:31.515Z,84.42
2022-12-01T14:06:46.434Z,84.13
2022-12-01T14:08:54.258Z,84.28
2022-12-01T14:10:59.880Z,84.34
2022-12-01T14:13:06.153Z,84.00
2022-12-01T14:15:29.230Z,84.25
2022-12-01T14:17:35.452Z,82.95
2022-12-01T14:19:46.716Z,82.58
2022-12-01T14:21:50.928Z,82.34
2022-12-01T14:24:04.678Z,82.83
2022-12-01T14:26:18.334Z,83.08
2022-12-01T14:29:00.239Z,82.94
2022-12-01T14:31:07.462Z,83.09
2022-12-01T14:33:46.405Z,83.23
2022-12-01T14:35:50.766Z,83.14
2022-12-01T14:37:54.513Z,82.59
2022-12-01T14:40:08.977Z,82.52
2022-12-01T14:42:54.718Z,82.16
2022-12-01T14:44:59.004Z,83.13
2022-12-01T14:47:08.768Z,82.76
2022-12-01T14:49:18.027Z,83.05
2022-12-01T14:51:29.459Z,82.76
2022-12-01T14:53:39.336Z,83.11
2022-12-01T14:55:52.198Z,82.69
2022-12-01T14:58:06.547Z,82.91
2022-12-01T15:00:16.507Z,82.79
2022-12-01T15:02:20.857Z,82.88
2022-12-01T15:04:25.713Z,83.10
2022-12-01T15:06:31.909Z,82.98
2022-12-01T15:08:49.410Z,82.75
2022-12-01T15:11:04.220Z,83.57
2022-12-01T15:13:24.309Z,83.13
2022-12-01T15:15:28.902Z,82.83
2022-12-01T15:17:35.017Z,83.23
2022-12-01T15:19:41.487Z,82.36
2022-12-01T15:21:48.364Z,82.74
2022-12-01T15:23:57.301Z,82.80
2022-12-01T15:26:02.954Z,82.87
2022-12-01T15:28:15.439Z,83.18
2022-12-01T15:30:19.843Z,82.98
2022-12-01T15:32:26.036Z,82.91
2022-12-01T15:34:34.323Z,82.65
2022-12-01T15:36:39.832Z,81.70
2022-12-01T15:38:45.976Z,81.63
2022-12-01T15:41:20.983Z,80.76
2022-12-01T15:43:20.686Z,80.76
2022-12-01T15:45:26.828Z,80.96
2022-12-01T15:47:37.305Z,81.07
2022-12-01T15:49:50.780Z,81.26
2022-12-01T15:51:55.793Z,80.90
2022-12-01T15:54:01.563Z,81.56
2022-12-01T15:56:08.518Z,81.75
2022-12-01T15:58:23.000Z,81.66
2022-12-01T16:00:27.677Z,82.27
2022-12-01T16:02:33.545Z,82.72
2022-12-01T16:04:41.878Z,82.45
2022-12-01T16:06:57.379Z,83.21
2022-12-01T16:09:05.005Z,83.13
2022-12-01T16:11:12.653Z,83.22
2022-12-01T16:13:41.778Z,83.87
2022-12-01T16:15:45.781Z,83.47
2022-12-01T16:17:51.525Z,84.00
2022-12-01T16:20:18.344Z,84.44
2022-12-01T16:22:23.931Z,84.06
2022-12-01T16:24:31.995Z,84.32
2022-12-01T16:26:36.054Z,84.77
2022-12-01T16:28:42.667Z,84.59
2022-12-01T16:30:46.690Z,84.27
2022-12-01T16:32:50.864Z,83.81
2022-12-01T16:34:55.456Z,84.34
2022-12-01T16:36:59.254Z,84.05
2022-12-01T16:39:08.475Z,84.60
2022-12-01T16:41:19.866Z,84.03
2022-12-01T16:43:25.118Z,84.70
2022-12-01T16:45:30.169Z,85.17
2022-12-01T16:47:34.505Z,84.73
2022-12-01T16:49:38.234Z,84.98
2022-12-01T16:51:55.300Z,85.24
2022-12-01T16:54:01.568Z,84.96
2022-12-01T16:56:07.068Z,85.46
2022-12-01T16:58:11.300Z,85.66
2022-12-01T17:00:16.595Z,85.54
2022-12-01T17:02:22.380Z,85.47
2022-12-01T17:04:26.414Z,85.75
2022-12-01T17:06:30.182Z,85.50
2022-12-01T17:08:34.529Z,85.55
2022-12-01T17:10:41.175Z,85.52
2022-12-01T17:12:45.669Z,85.52
2022-12-01T17:14:50.004Z,85.96
2022-12-01T17:16:53.934Z,85.46
2022-12-01T17:19:01.165Z,85.43
2022-12-01T17:21:07.383Z,84.63
2022-12-01T17:23:11.046Z,85.50
2022-12-01T17:25:15.039Z,85.88
2022-12-01T17:27:18.793Z,85.67
2022-12-01T17:29:22.422Z,85.43
2022-12-01T17:31:26.395Z,85.46
2022-12-01T17:33:30.207Z,85.32
2022-12-01T17:35:35.396Z,85.07
2022-12-01T17:37:39.019Z,85.25
2022-12-01T17:39:42.843Z,85.57
2022-12-01T17:41:46.653Z,85.80
2022-12-01T17:43:50.370Z,84.91
2022-12-01T17:45:53.917Z,85.32
2022-12-01T17:47:57.563Z,85.93
2022-12-01T17:50:01.353Z,85.88
2022-12-01T17:52:07.057Z,85.82
2022-12-01T17:54:11.073Z,86.14
2022-12-01T17:56:17.634Z,86.39
2022-12-01T17:58:21.772Z,86.32
2022-12-01T18:00:25.684Z,86.65
2022-12-01T18:02:29.803Z,86.68
2022-12-01T18:04:35.351Z,87.39
2022-12-01T18:06:39.512Z,86.89
2022-12-01T18:08:44.984Z,87.17
2022-12-01T18:10:48.808Z,87.35
2022-12-01T18:12:52.812Z,87.73
2022-12-01T18:14:56.704Z,88.34
2022-12-01T18:17:00.212Z,88.69
2022-12-01T18:19:04.508Z,88.27
2022-12-01T18:21:09.695Z,89.04
2022-12-01T18:23:14.590Z,88.56
2022-12-01T18:25:19.820Z,89.10
2022-12-01T18:27:23.802Z,89.17
2022-12-01T18:29:28.946Z,88.98
2022-12-01T18:31:33.470Z,89.45
2022-12-01T18:33:39.319Z,89.83
2022-12-01T18:35:45.009Z,89.98
2022-12-01T18:37:49.046Z,89.69
2022-12-01T18:39:53.393Z,89.90
2022-12-01T18:41:59.361Z,89.57
2022-12-01T18:44:04.457Z,89.97
2022-12-01T18:46:10.161Z,90.05
2022-12-01T18:48:15.642Z,90.24
2022-12-01T18:50:20.074Z,89.81
2022-12-01T18:52:24.686Z,90.18
2022-12-01T18:54:29.747Z,90.19
2022-12-01T18:56:34.052Z,89.81
2022-12-01T18:58:40.832Z,90.68
2022-12-01T19:00:44.778Z,90.84
2022-12-01T19:02:49.057Z,90.75
2022-12-01T19:04:53.694Z,91.13
2022-12-01T19:06:58.288Z,90.59
2022-12-01T19:09:04.469Z,91.63
2022-12-01T19:11:09.776Z,91.42
2022-12-01T19:13:14.036Z,91.38
2022-12-01T19:15:20.903Z,90.93
2022-12-01T19:17:24.571Z,91.36
2022-12-01T19:19:30.835Z,91.77
2022-12-01T19:21:37.469Z,91.90
2022-12-01T19:23:42.171Z,92.19
2022-12-01T19:25:46.518Z,92.72
2022-12-01T19:27:51.610Z,92.12
2022-12-01T19:29:55.923Z,91.87
2022-12-01T19:32:01.851Z,92.75
2022-12-01T19:34:05.871Z,92.32
2022-12-01T19:36:12.905Z,92.68
2022-12-01T19:38:18.154Z,93.05
2022-12-01T19:40:22.676Z,92.97
2022-12-01T19:42:27.297Z,93.48
2022-12-01T19:44:31.826Z,93.34
2022-12-01T19:46:36.013Z,93.47
2022-12-01T19:48:42.224Z,93.41
2022-12-01T19:50:46.733Z,93.38
2022-12-01T19:52:51.859Z,93.58
2022-12-01T19:54:56.960Z,93.88
2022-12-01T19:57:01.235Z,94.41
2022-12-01T19:59:08.451Z,93.99
2022-12-01T20:01:16.064Z,94.24
2022-12-01T20:03:20.772Z,94.74
2022-12-01T20:05:26.563Z,94.00
2022-12-01T20:07:32.551Z,93.98
2022-12-01T20:09:36.930Z,94.34
2022-12-01T20:11:41.880Z,94.14
2022-12-01T20:13:47.108Z,94.26
2022-12-01T20:15:51.526Z,93.97
2022-12-01T20:17:56.685Z,94.24
2022-12-01T20:20:02.255Z,95.18
2022-12-01T20:22:07.949Z,94.71
2022-12-01T20:24:15.242Z,94.76
2022-12-01T20:26:23.872Z,94.81
2022-12-01T20:28:30.372Z,94.53
2022-12-01T20:30:34.448Z,94.82
2022-12-01T20:32:38.509Z,95.13
2022-12-01T20:34:42.235Z,94.88
2022-12-01T20:36:47.467Z,94.46
2022-12-01T20:38:53.196Z,94.39
2022-12-01T20:40:57.446Z,93.97
2022-12-01T20:43:02.755Z,94.42
2022-12-01T20:45:07.989Z,94.17
2022-12-01T20:47:12.134Z,92.65
2022-12-01T20:49:17.751Z,93.54
2022-12-01T20:51:21.653Z,93.00
2022-12-01T20:53:25.646Z,93.04
2022-12-01T20:55:31.036Z,93.18
2022-12-01T20:57:34.872Z,92.73
2022-12-01T20:59:39.469Z,92.08
2022-12-01T21:01:43.568Z,92.03
2022-12-01T21:03:47.979Z,92.32
2022-12-01T21:05:51.765Z,92.49
2022-12-01T21:07:56.628Z,92.67
2022-12-01T21:10:00.912Z,92.26
2022-12-01T21:12:31.430Z,92.19
2022-12-01T21:14:40.683Z,92.01
2022-12-01T21:16:52.076Z,91.92
2022-12-01T21:19:00.490Z,91.97
2022-12-01T21:21:11.829Z,91.87
2022-12-01T21:23:18.621Z,92.35
2022-12-01T21:25:27.507Z,92.52
2022-12-01T21:27:33.312Z,93.07
2022-12-01T21:29:41.704Z,92.67
2022-12-01T21:31:46.309Z,93.03
2022-12-01T21:33:53.083Z,93.67
2022-12-01T21:36:01.397Z,93.53
2022-12-01T21:38:20.449Z,93.92
2022-12-01T21:40:28.776Z,93.67
2022-12-01T21:42:35.762Z,93.78
2022-12-01T21:44:40.578Z,93.66
2022-12-01T21:46:48.561Z,93.61
2022-12-01T21:48:55.918Z,94.01
2022-12-01T21:51:03.541Z,94.08
2022-12-01T21:53:15.304Z,93.71
2022-12-01T21:55:44.718Z,93.82
2022-12-01T21:57:53.399Z,94.46
2022-12-01T22:00:08.719Z,93.90
2022-12-01T22:02:33.222Z,94.29
2022-12-01T22:04:38.991Z,94.11
2022-12-01T22:06:48.528Z,94.18
2022-12-01T22:08:56.120Z,93.70
2022-12-01T22:11:06.153Z,93.93
2022-12-01T22:13:16.312Z,94.17
2022-12-01T22:15:41.551Z,93.74
2022-12-01T22:17:47.074Z,93.95
2022-12-01T22:19:58.253Z,93.78
2022-12-01T22:22:21.990Z,94.01
2022-12-01T22:24:26.678Z,93.35
2022-12-01T22:26:31.643Z,93.73
2022-12-01T22:28:38.155Z,93.09
2022-12-01T22:30:44.837Z,92.95
2022-12-01T22:32:57.579Z,92.81
2022-12-01T22:35:20.644Z,92.93
2022-12-01T22:37:34.760Z,93.04
2022-12-01T22:39:42.889Z,92.48
2022-12-01T22:41:50.379Z,92.20
2022-12-01T22:44:02.681Z,92.64
2022-12-01T22:46:25.091Z,92.63
2022-12-01T22:48:38.167Z,92.29
2022-12-01T22:50:51.356Z,91.72
2022-12-01T22:53:03.129Z,92.63
2022-12-01T22:55:18.160Z,92.48
2022-12-01T22:57:37.546Z,92.59
2022-12-01T22:59:48.377Z,93.14
2022-12-01T23:01:57.414Z,93.12
2022-12-01T23:04:18.749Z,93.43
2022-12-01T23:06:57.032Z,93.26
2022-12-01T23:09:02.144Z,93.06
2022-12-01T23:11:15.272Z,93.28
2022-12-01T23:13:23.772Z,93.66
2022-12-01T23:15:37.160Z,93.17
2022-12-01T23:17:42.421Z,93.42
2022-12-01T23:19:50.159Z,93.10
2022-12-01T23:21:58.168Z,92.92
2022-12-01T23:24:04.849Z,93.38
2022-12-01T23:26:12.719Z,93.26
2022-12-01T23:28:21.866Z,92.68
2022-12-01T23:30:27.105Z,91.96
2022-12-01T23:32:32.864Z,92.30
2022-12-01T23:34:38.107Z,92.32
2022-12-01T23:36:43.218Z,92.53
2022-12-01T23:38:51.009Z,92.05
2022-12-01T23:40:59.441Z,92.36
2022-12-01T23:43:13.952Z,92.79
2022-12-01T23:45:21.787Z,92.98
2022-12-01T23:47:30.436Z,92.34
2022-12-01T23:49:40.878Z,92.63
2022-12-01T23:51:50.039Z,92.88
2022-12-01T23:53:56.222Z,92.94
2022-12-01T23:56:07.653Z,92.31
2022-12-01T23:58:18.364Z,92.93
